createdAt,value
2023-10-07T10:19:12.647Z,2.90
2023-10-07T10:34:16.184Z,2.40
2023-10-07T10:49:22.295Z,2.90
2023-10-07T11:04:25.537Z,3.00
2023-10-07T11:19:28.256Z,2.30
2023-10-07T11:34:39.076Z,2.40
2023-10-07T11:49:42.428Z,3.00
2023-10-07T12:04:48.631Z,2.50
2023-10-07T12:19:51.793Z,2.70
2023-10-07T12:34:57.479Z,3.20
2023-10-07T12:50:00.324Z,2.90
2023-10-07T13:05:03.104Z,2.70
2023-10-07T13:20:08.592Z,2.90
2023-10-07T13:35:20.511Z,3.20
2023-10-07T13:50:27.024Z,2.90
2023-10-07T14:05:30.224Z,3.50
2023-10-07T14:20:34.105Z,3.00
2023-10-07T14:35:37.933Z,2.80
2023-10-07T14:50:41.481Z,3.40
2023-10-07T15:05:45.523Z,3.00
2023-10-07T15:20:48.593Z,2.30
2023-10-07T15:35:58.192Z,2.40
2023-10-07T15:51:01.402Z,3.40
2023-10-07T16:06:06.537Z,2.70
2023-10-07T16:21:17.703Z,3.00
2023-10-07T16:36:20.494Z,3.80
2023-10-07T16:51:23.369Z,3.70
2023-10-07T17:06:26.189Z,3.10
2023-10-07T17:21:28.980Z,3.50
2023-10-07T17:36:32.138Z,3.50
2023-10-07T17:51:36.305Z,3.20
2023-10-07T18:06:38.977Z,3.90
2023-10-07T18:21:42.236Z,3.50
2023-10-07T18:36:45.593Z,3.50
2023-10-07T18:51:48.595Z,4.20
2023-10-07T19:06:51.338Z,3.90
2023-10-07T19:21:55.514Z,3.80
2023-10-07T19:36:59.461Z,3.50
2023-10-07T19:52:02.419Z,2.90
2023-10-07T20:07:05.357Z,0.80
2023-10-07T20:22:08.768Z,0.70
2023-10-07T20:37:13.297Z,1.00
2023-10-07T20:52:15.983Z,0.80
2023-10-07T21:07:18.697Z,0.90
2023-10-07T21:22:21.611Z,0.90
2023-10-07T21:37:24.426Z,1.10
2023-10-07T21:52:27.349Z,0.90
2023-10-07T22:07:30.070Z,0.40
2023-10-07T22:52:42.240Z,0.40
2023-10-07T23:22:57.682Z,0.70
2023-10-07T23:38:19.154Z,0.80
2023-10-07T23:53:26.084Z,0.70
